Etusivu
METAR-TAF:

METAR-TAF

Lentoasemat :

Mount Carmel Municipal Airport

Mount Carmel, Illinois, Yhdysvallat

Leveyspiiri: 38-36-23N, Pituuspiiri: 087-43-36W, korkeus merenpinnasta: 131 m

Tämänhetkinen sää

Tämä raportti tehtiin 21 minuuttia sitten, kello 17.15 UTC
Tuuli 8 kn lounaasta
Lämpötila 5°C
Kosteus 45%
Ilmanpaine 1030 hPa
Näkyvyys: 16.1 km
selkeää

METAR: KAJG 221715Z AUTO 22008KT 10SM CLR 05/M06 A3041 RMK AO2 T00541059

Aika: 11:36 (17:36 UTC)


TAF: puuttuu

Säähavainnot ja -ennusteet yli 4000 lentoasemalta (METAR- ja TAF-raportit).

Käytössä olevat sääasemat on merkitty karttaan keltaisilla ja punaisilla pisteillä.

Aseta hiiri pisteen päälle nähdäksesi sääaseman nimen.

Klikkaa sitten nähdäksesi säähavainnot ja -ennusteet.

Kartan vaihtaminen: klikkaa mustalla rastilla varustettuja vihreitä pisteitä, niin voit zoomata sisään; viivalla varustettua vihreää pistettä, niin voit zoomata ulos tai vihreitä nuolia, niin pääset viereisille kartoille.


METAR-TAF: